D/T METAR WX W/DIR W/SPE G/SPE TEMP DEWP
5/06/20 05:50 EGBB 050450Z AUTO 29009KT 260V320 9999 BKN025/// BKN031/// 10/05 Q0995 WNW (290°) 10.4mph 10°C 5°C
5/06/20 04:50 EGBB 050350Z AUTO 29009KT 9999 BKN048/// 10/05 Q0996 WNW (290°) 10.4mph 10°C 5°C
5/06/20 04:20 EGBB 050320Z AUTO 30010KT 9999 NCD 10/05 Q0996 WNW (300°) 11.5mph 10°C 5°C
5/06/20 03:20 EGBB 050220Z AUTO 30008KT 9999 FEW020/// 10/07 Q0997 WNW (300°) 9.2mph 10°C 7°C
5/06/20 02:50 EGBB 050150Z AUTO 30012KT 9999 FEW021/// 10/07 Q0997 WNW (300°) 13.8mph 10°C 7°C
5/06/20 02:20 EGBB 050120Z AUTO 30009KT 9999 BKN017/// 10/08 Q0997 WNW (300°) 10.4mph 10°C 8°C
5/06/20 01:50 EGBB 050050Z AUTO 30006KT 9999 BKN018/// 11/08 Q0997 WNW (300°) 6.9mph 11°C 8°C
5/06/20 00:50 EGBB 042350Z AUTO 29006KT 9999 FEW018/// SCT023/// BKN043/// 11/09 Q0998 RERA WNW (290°) 6.9mph 11°C 9°C
5/06/20 00:20 EGBB 042320Z AUTO 27008KT 6000 RA FEW012/// SCT017/// BKN025/// 11/09 Q0998 RERA RA W (270°) 9.2mph 11°C 9°C
4/06/20 23:50 EGBB 042250Z 26004KT 210V290 9999 BKN023 BKN046 11/09 Q0998 W (260°) 4.6mph 11°C 9°C
4/06/20 23:20 EGBB 042220Z 24004KT 210V270 9999 FEW024 OVC029 11/09 Q0999 WSW (240°) 4.6mph 11°C 9°C
4/06/20 22:50 EGBB 042150Z 25005KT 190V290 9999 FEW021 BKN037 11/09 Q0999 WSW (250°) 5.8mph 11°C 9°C
4/06/20 22:20 EGBB 042120Z 25004KT 9999 BKN021 OVC026 11/09 Q0999 RERA WSW (250°) 4.6mph 11°C 9°C
4/06/20 21:50 EGBB 042050Z 29005KT 260V320 8000 RA BKN017 BKN034 12/10 Q1000 RA WNW (290°) 5.8mph 12°C 10°C
4/06/20 21:20 EGBB 042020Z 26005KT 3400 RA BKN017 OVC028 11/09 Q1000 RA W (260°) 5.8mph 11°C 9°C
4/06/20 20:50 EGBB 041950Z VRB03KT 9999 SCT020 12/10 Q1000 N (0°) 3.5mph 12°C 10°C
4/06/20 20:20 EGBB 041920Z 27005KT 9999 FEW025 12/09 Q1000 W (270°) 5.8mph 12°C 9°C
4/06/20 19:20 EGBB 041820Z 28007KT 9999 SHRA FEW022 SCT029 BKN036 12/09 Q1000 RESHRA SHRA W (280°) 8.1mph 12°C 9°C
4/06/20 18:50 EGBB 041750Z 31009KT 9999 SHRA FEW021 SCT027 BKN033 12/09 Q1000 RERA SHRA NW (310°) 10.4mph 12°C 9°C
4/06/20 18:20 EGBB 041720Z 26006KT 9999 5000N VCSH FEW022 BKN027 12/09 Q1001 VCSH W (260°) 6.9mph 12°C 9°C
4/06/20 17:50 EGBB 041650Z VRB03KT 9999 FEW023 SCT036 12/09 Q1001 RERA N (0°) 3.5mph 12°C 9°C
4/06/20 17:20 EGBB 041620Z VRB03KT 9999 RA FEW029 BKN039 12/07 Q1001 RA N (0°) 3.5mph 12°C 7°C
4/06/20 16:50 EGBB 041550Z 36004KT 320V040 9999 RA BKN028 BKN049 12/06 Q1001 RA N (360°) 4.6mph 12°C 6°C
4/06/20 15:50 EGBB 041450Z 30008KT 9999 SCT032 13/05 Q1002 WNW (300°) 9.2mph 13°C 5°C
4/06/20 15:20 EGBB 041420Z 32011KT 9999 SCT035 BKN048 13/05 Q1002 NW (320°) 12.7mph 13°C 5°C
4/06/20 14:50 EGBB 041350Z 32011KT 9999 SCT036 BKN044 13/04 Q1002 NW (320°) 12.7mph 13°C 4°C
4/06/20 14:20 EGBB 041320Z 32011KT 9999 FEW036 SCT045 14/04 Q1002 NW (320°) 12.7mph 14°C 4°C
4/06/20 13:50 EGBB 041250Z 30010KT 9999 BKN042 14/04 Q1003 WNW (300°) 11.5mph 14°C 4°C
4/06/20 13:20 EGBB 041220Z 27006KT 220V320 9999 SCT024 BKN030 13/07 Q1003 W (270°) 6.9mph 13°C 7°C
4/06/20 12:50 EGBB 041150Z VRB03KT 9999 -SHRA BKN025 OVC032 12/07 Q1003 -SHRA N (0°) 3.5mph 12°C 7°C
4/06/20 12:20 EGBB 041120Z 29004KT 220V030 9999 FEW011 BKN024 11/07 Q1004 WNW (290°) 4.6mph 11°C 7°C
4/06/20 11:50 EGBB 041050Z VRB03KT 9999 FEW009 BKN038 10/08 Q1004 RESHRA N (0°) 3.5mph 10°C 8°C
4/06/20 11:20 EGBB 041020Z 29007KT 250V320 7000 SHRA BKN016 10/07 Q1005 SHRA WNW (290°) 8.1mph 10°C 7°C
4/06/20 10:50 EGBB 040950Z 31008KT 9000 VCSH BKN027 11/04 Q1005 VCSH NW (310°) 9.2mph 11°C 4°C
4/06/20 10:20 EGBB 040920Z 31006KT 9999 BKN030 11/05 Q1005 NW (310°) 6.9mph 11°C 5°C
4/06/20 09:50 EGBB 040850Z 29004KT 220V010 9999 FEW034 11/05 Q1005 WNW (290°) 4.6mph 11°C 5°C
4/06/20 09:20 EGBB 040820Z 32005KT 280V360 CAVOK 11/05 Q1005 NW (320°) 5.8mph 11°C 5°C
4/06/20 08:50 EGBB 040750Z 33005KT 300V010 CAVOK 10/05 Q1005 NNW (330°) 5.8mph 10°C 5°C
4/06/20 08:20 EGBB 040720Z 35007KT CAVOK 10/06 Q1006 N (350°) 8.1mph 10°C 6°C
4/06/20 07:50 EGBB 040650Z 33008KT CAVOK 10/06 Q1006 NNW (330°) 9.2mph 10°C 6°C
4/06/20 06:50 EGBB 040550Z 33007KT 9999 FEW020 09/06 Q1006 NNW (330°) 8.1mph 9°C 6°C
4/06/20 06:20 EGBB 040520Z AUTO 33009KT 9999 BKN017/// 09/07 Q1006 NNW (330°) 10.4mph 9°C 7°C
4/06/20 05:50 EGBB 040450Z AUTO 33009KT 9999 BKN018/// 09/07 Q1006 NNW (330°) 10.4mph 9°C 7°C
4/06/20 05:20 EGBB 040420Z AUTO 33008KT 9999 OVC019/// 09/07 Q1006 NNW (330°) 9.2mph 9°C 7°C
4/06/20 04:20 EGBB 040320Z AUTO 35007KT 9999 BKN016/// 09/07 Q1007 N (350°) 8.1mph 9°C 7°C
4/06/20 03:50 EGBB 040250Z AUTO 34009KT 9999 BKN014/// OVC019/// 09/07 Q1007 RERA NNW (340°) 10.4mph 9°C 7°C
4/06/20 03:20 EGBB 040220Z AUTO 34010KT 9999 OVC016/// 09/06 Q1007 NNW (340°) 11.5mph 9°C 6°C
4/06/20 02:50 EGBB 040150Z AUTO 34009KT 9999 BKN016/// OVC033/// 09/06 Q1008 NNW (340°) 10.4mph 9°C 6°C
4/06/20 02:20 EGBB 040120Z AUTO 34009KT 9999 SCT028/// BKN033/// 09/06 Q1008 NNW (340°) 10.4mph 9°C 6°C
4/06/20 01:50 EGBB 040050Z AUTO 34010KT 9999 FEW023/// OVC049/// 10/06 Q1009 NNW (340°) 11.5mph 10°C 6°C
4/06/20 01:20 EGBB 040020Z AUTO 34009KT 9999 OVC048/// 10/07 Q1009 NNW (340°) 10.4mph 10°C 7°C
4/06/20 00:50 EGBB 032350Z AUTO 34009KT 9999 OVC049/// 10/07 Q1009 NNW (340°) 10.4mph 10°C 7°C
4/06/20 00:20 EGBB 032320Z AUTO 34010KT 9999 OVC047/// 10/07 Q1009 NNW (340°) 11.5mph 10°C 7°C
3/06/20 23:50 EGBB 032250Z 34008KT 9999 BKN043 10/08 Q1009 NNW (340°) 9.2mph 10°C 8°C
3/06/20 23:20 EGBB 032220Z 34008KT 9999 FEW018 BKN042 10/08 Q1010 NNW (340°) 9.2mph 10°C 8°C
3/06/20 22:20 EGBB 032120Z 35007KT 9999 FEW016 BKN030 10/08 Q1010 N (350°) 8.1mph 10°C 8°C
3/06/20 21:50 EGBB 032050Z 36009KT 9999 SCT019 BKN030 10/08 Q1010 N (360°) 10.4mph 10°C 8°C
3/06/20 21:20 EGBB 032020Z 36010KT 9999 BKN013 10/09 Q1010 N (360°) 11.5mph 10°C 9°C
3/06/20 20:20 EGBB 031920Z 01009KT 9999 BKN008 OVC012 10/09 Q1010 N (10°) 10.4mph 10°C 9°C
3/06/20 19:50 EGBB 031850Z 36010KT 6000 BKN006 OVC009 10/10 Q1010 REDZ N (360°) 11.5mph 10°C 10°C
3/06/20 19:20 EGBB 031820Z 01011KT 5000 -DZ BKN008 OVC012 10/10 Q1010 REDZ -DZ N (10°) 12.7mph 10°C 10°C
3/06/20 18:50 EGBB 031750Z 02011KT 5000 -DZ BKN006 OVC010 11/10 Q1010 REDZ -DZ NNE (20°) 12.7mph 11°C 10°C
3/06/20 18:20 EGBB 031720Z 36013KT 4500 DZ BKN007 11/10 Q1010 RERA DZ N (360°) 15.0mph 11°C 10°C
3/06/20 17:50 EGBB 031650Z 01012KT 9999 -RA SCT008 BKN012 OVC025 11/11 Q1010 -RA N (10°) 13.8mph 11°C 11°C
3/06/20 17:20 EGBB 031620Z 01012KT 9999 -RA BKN011 OVC025 12/11 Q1010 -RA N (10°) 13.8mph 12°C 11°C
3/06/20 16:50 EGBB 031550Z 02012KT 9999 -RA SCT007 BKN017 12/11 Q1010 -RA NNE (20°) 13.8mph 12°C 11°C
3/06/20 16:20 EGBB 031520Z 01008KT 9999 -RA FEW007 SCT020 BKN029 13/12 Q1010 -RA N (10°) 9.2mph 13°C 12°C
3/06/20 15:50 EGBB 031450Z 02009KT 9000 -RA FEW008 BKN028 OVC033 13/12 Q1010 -RA NNE (20°) 10.4mph 13°C 12°C
3/06/20 15:20 EGBB 031420Z 02010KT 9000 FEW008 BKN027 OVC032 13/12 Q1010 NNE (20°) 11.5mph 13°C 12°C
3/06/20 14:50 EGBB 031350Z 02009KT 8000 -RA SCT008 OVC028 13/12 Q1010 -RA NNE (20°) 10.4mph 13°C 12°C
3/06/20 13:50 EGBB 031250Z 02009KT 8000 -RA SCT006 BKN013 13/12 Q1010 RERA -RA NNE (20°) 10.4mph 13°C 12°C
3/06/20 13:20 EGBB 031220Z 04009KT 7000 RA SCT009 SCT014 BKN018 13/12 Q1010 RA NE (40°) 10.4mph 13°C 12°C
3/06/20 12:50 EGBB 031150Z 04011KT 8000 -RA SCT012 BKN017 14/12 Q1010 -RA NE (40°) 12.7mph 14°C 12°C
3/06/20 11:50 EGBB 031050Z 04010KT 9000 RA BKN014 14/11 Q1010 RA NE (40°) 11.5mph 14°C 11°C
3/06/20 11:20 EGBB 031020Z 03010KT 9999 -RA BKN013 13/11 Q1010 -RA NNE (30°) 11.5mph 13°C 11°C
3/06/20 10:50 EGBB 030950Z 03010KT 9999 -RA BKN013 14/11 Q1010 -RA NNE (30°) 11.5mph 14°C 11°C
3/06/20 10:20 EGBB 030920Z 03009KT 9999 FEW014 13/10 Q1010 NNE (30°) 10.4mph 13°C 10°C
3/06/20 09:50 EGBB 030850Z 04008KT 010V070 9999 SCT012 13/10 Q1010 NE (40°) 9.2mph 13°C 10°C
3/06/20 08:50 EGBB 030750Z 04008KT 9999 -SHRA NSC 13/09 Q1010 -SHRA NE (40°) 9.2mph 13°C 9°C
3/06/20 08:20 EGBB 030720Z 03008KT CAVOK 13/10 Q1010 NNE (30°) 9.2mph 13°C 10°C
3/06/20 07:50 EGBB 030650Z 01004KT 9999 -SHRA NSC 14/10 Q1010 -SHRA N (10°) 4.6mph 14°C 10°C
3/06/20 06:50 EGBB 030550Z 03006KT 9999 -SHRA NSC 13/11 Q1010 -SHRA NNE (30°) 6.9mph 13°C 11°C
3/06/20 06:20 EGBB 030520Z AUTO 02008KT 9999 -RA NCD 13/10 Q1010 RERA -RA NNE (20°) 9.2mph 13°C 10°C
3/06/20 05:50 EGBB 030450Z AUTO 36006KT 9999 RA NCD 14/09 Q1010 RA N (360°) 6.9mph 14°C 9°C
3/06/20 05:20 EGBB 030420Z AUTO 35008KT 9999 NCD 16/07 Q1010 N (350°) 9.2mph 16°C 7°C
3/06/20 04:50 EGBB 030350Z AUTO 34008KT 9999 NCD 16/07 Q1010 NNW (340°) 9.2mph 16°C 7°C
3/06/20 03:50 EGBB 030250Z AUTO 32005KT 9999 NCD 17/06 Q1011 NW (320°) 5.8mph 17°C 6°C
3/06/20 03:20 EGBB 030220Z AUTO 32006KT 9999 NCD 17/06 Q1011 NW (320°) 6.9mph 17°C 6°C
3/06/20 02:50 EGBB 030150Z AUTO 32008KT 9999 NCD 17/07 Q1011 NW (320°) 9.2mph 17°C 7°C
3/06/20 02:20 EGBB 030120Z AUTO 32007KT 9999 NCD 17/07 Q1012 NW (320°) 8.1mph 17°C 7°C
3/06/20 01:50 EGBB 030050Z AUTO 34006KT 9999 NCD 17/08 Q1012 NNW (340°) 6.9mph 17°C 8°C
3/06/20 01:20 EGBB 030020Z AUTO 34006KT 9999 NCD 18/07 Q1012 NNW (340°) 6.9mph 18°C 7°C
3/06/20 00:50 EGBB 022350Z AUTO 33006KT 9999 NCD 18/08 Q1013 NNW (330°) 6.9mph 18°C 8°C
3/06/20 00:20 EGBB 022320Z AUTO 32006KT 9999 NCD 19/08 Q1013 NW (320°) 6.9mph 19°C 8°C
2/06/20 23:50 EGBB 022250Z 31005KT CAVOK 19/07 Q1013 NW (310°) 5.8mph 19°C 7°C
2/06/20 23:20 EGBB 022220Z 32008KT CAVOK 19/08 Q1014 NW (320°) 9.2mph 19°C 8°C